Time;durP1;ratioP1;P1;durP2;ratioP2;P2;SDS_P1;SDS_P2;PMS_P1;PMS_P2;Temp;Humidity;BMP_temperature;BMP_pressure;BME280_temperature;BME280_humidity;BME280_pressure;Samples;Min_cycle;Max_cycle;Signal;HPM_P1;HPM_P2
2021/05/03 00:00:04;;;;;;;8.32;5.80;;;;;;;10.67;76.90;99439.66;5027550;28;20064;-68
2021/05/03 00:02:34;;;;;;;8.95;5.80;;;;;;;10.68;76.84;99427.28;5028222;28;20071;-69
2021/05/03 00:05:00;;;;;;;9.23;5.60;;;;;;;10.62;77.00;99412.41;5026940;28;20051;-69
2021/05/03 00:07:29;;;;;;;9.60;5.70;;;;;;;10.76;76.41;99412.06;5045907;28;20087;-68
2021/05/03 00:09:55;;;;;;;10.93;6.00;;;;;;;10.55;77.98;99389.63;5044772;28;20049;-68
2021/05/03 00:12:21;;;;;;;8.80;5.65;;;;;;;10.77;75.96;99393.47;5043945;28;20492;-71
2021/05/03 00:14:47;;;;;;;10.77;6.03;;;;;;;10.77;76.59;99395.22;5026139;28;20091;-68
2021/05/03 00:17:13;;;;;;;9.18;5.55;;;;;;;10.55;76.47;99370.19;5045342;28;20473;-67
2021/05/03 00:19:39;;;;;;;11.05;6.18;;;;;;;10.75;75.96;99384.66;5045934;28;20071;-68
2021/05/03 00:22:05;;;;;;;8.65;6.30;;;;;;;10.76;76.28;99388.19;5043813;28;20041;-67
2021/05/03 00:24:31;;;;;;;8.15;5.75;;;;;;;10.84;76.25;99375.59;5027680;28;20068;-68
2021/05/03 00:26:57;;;;;;;7.55;5.65;;;;;;;10.72;76.27;99362.66;5044728;28;20072;-67
2021/05/03 00:29:23;;;;;;;8.88;5.60;;;;;;;10.75;75.91;99360.78;5043448;28;20508;-67
2021/05/03 00:31:49;;;;;;;8.60;5.95;;;;;;;10.85;76.13;99346.38;5043505;28;20405;-67
2021/05/03 00:34:15;;;;;;;8.68;6.15;;;;;;;10.82;75.79;99353.53;5045838;28;20408;-71
2021/05/03 00:36:42;;;;;;;8.63;5.05;;;;;;;10.95;75.77;99331.94;5027974;28;20047;-66
2021/05/03 00:39:08;;;;;;;8.50;5.82;;;;;;;10.75;76.65;99326.31;5025719;28;20091;-71
2021/05/03 00:41:34;;;;;;;8.23;5.22;;;;;;;10.88;76.08;99319.75;5045841;28;21185;-68
2021/05/03 00:44:00;;;;;;;7.25;5.53;;;;;;;10.81;76.18;99304.94;5045648;28;20155;-68
2021/05/03 00:46:27;;;;;;;8.57;5.30;;;;;;;10.99;75.69;99312.34;5045306;28;20052;-70
2021/05/03 00:48:53;;;;;;;7.57;5.88;;;;;;;10.88;76.30;99313.59;5041997;28;20095;-67
2021/05/03 00:51:20;;;;;;;8.45;5.40;;;;;;;10.77;76.69;99318.31;5044170;28;20504;-68
2021/05/03 00:53:46;;;;;;;8.32;5.85;;;;;;;10.94;75.74;99308.97;5027509;28;20080;-68
2021/05/03 00:56:12;;;;;;;7.15;5.22;;;;;;;11.03;75.58;99291.94;5027192;28;20497;-68
2021/05/03 00:58:39;;;;;;;8.20;5.75;;;;;;;10.84;76.47;99277.47;5043132;28;20048;-67
2021/05/03 01:01:05;;;;;;;7.45;5.40;;;;;;;10.90;77.38;99279.91;5026888;28;20057;-66
2021/05/03 01:03:31;;;;;;;6.93;5.25;;;;;;;10.86;77.38;99271.19;5029195;28;20587;-65
2021/05/03 01:05:58;;;;;;;8.25;6.18;;;;;;;10.88;77.54;99257.91;5045783;28;20512;-68
2021/05/03 01:08:24;;;;;;;9.30;6.13;;;;;;;10.83;77.68;99239.44;5046026;28;20041;-69
2021/05/03 01:10:50;;;;;;;7.20;5.63;;;;;;;10.82;77.82;99226.22;5013764;28;20048;-67
2021/05/03 01:13:16;;;;;;;9.50;5.88;;;;;;;10.52;77.25;99184.72;5028265;28;20110;-70
2021/05/03 01:15:41;;;;;;;6.93;5.70;;;;;;;10.81;77.25;99225.38;5046025;28;20037;-70
2021/05/03 01:18:08;;;;;;;10.82;5.78;;;;;;;10.78;77.53;99222.81;5045883;28;20045;-69
2021/05/03 01:20:36;;;;;;;7.97;5.40;;;;;;;10.77;76.89;99199.00;5048331;28;20068;-69
2021/05/03 01:23:05;;;;;;;6.75;5.15;;;;;;;10.83;76.78;99201.44;5045468;28;20518;-68
2021/05/03 01:25:34;;;;;;;6.30;5.10;;;;;;;10.70;77.20;99208.03;5030717;28;20052;-68
2021/05/03 01:28:02;;;;;;;9.15;5.43;;;;;;;10.90;76.86;99216.25;5047944;28;20048;-69
2021/05/03 01:30:37;;;;;;;6.90;4.65;;;;;;;10.69;77.06;99201.88;5044694;28;20464;-68
2021/05/03 01:33:06;;;;;;;5.90;4.97;;;;;;;10.93;76.51;99197.63;5030717;28;20045;-70
2021/05/03 01:35:32;;;;;;;7.00;5.05;;;;;;;10.90;76.88;99211.84;5013898;28;20055;-68
2021/05/03 01:37:59;;;;;;;7.45;4.68;;;;;;;10.93;76.79;99202.91;5046605;28;20073;-67
2021/05/03 01:40:27;;;;;;;5.55;4.55;;;;;;;10.97;76.43;99202.78;5046263;28;20051;-68
2021/05/03 01:42:53;;;;;;;6.70;4.65;;;;;;;11.06;76.65;99197.19;5048057;28;20053;-66
2021/05/03 01:45:23;;;;;;;6.63;4.78;;;;;;;10.90;76.74;99195.94;5046981;28;20041;-68
2021/05/03 01:47:50;;;;;;;7.13;4.75;;;;;;;11.06;76.01;99185.69;5046330;28;20041;-66
2021/05/03 01:50:18;;;;;;;7.28;4.30;;;;;;;11.05;76.39;99183.97;5047174;28;20087;-65
2021/05/03 01:52:45;;;;;;;6.60;4.78;;;;;;;11.10;76.15;99185.56;5047897;28;20045;-65
2021/05/03 01:55:23;;;;;;;5.22;4.45;;;;;;;11.13;75.91;99163.38;5047716;28;20040;-66
2021/05/03 01:57:49;;;;;;;6.20;4.78;;;;;;;11.16;76.37;99156.16;5029289;28;20041;-69
2021/05/03 02:00:16;;;;;;;7.38;4.63;;;;;;;11.04;76.81;99138.00;5011034;28;20512;-67
2021/05/03 02:02:49;;;;;;;6.70;5.03;;;;;;;11.15;76.51;99148.28;5043410;28;20618;-67
2021/05/03 02:05:23;;;;;;;6.63;4.90;;;;;;;11.16;76.11;99150.03;5012165;28;20045;-67
2021/05/03 02:08:00;;;;;;;7.43;5.20;;;;;;;11.07;76.58;99137.06;5044067;28;20040;-70
2021/05/03 02:10:28;;;;;;;7.20;5.00;;;;;;;11.05;76.57;99120.31;5044548;28;20041;-65
2021/05/03 02:12:54;;;;;;;8.35;5.10;;;;;;;11.02;76.23;99128.34;5044730;28;20041;-64
2021/05/03 02:15:20;;;;;;;5.93;5.32;;;;;;;11.11;76.56;99136.03;5043931;28;20067;-68
2021/05/03 02:17:46;;;;;;;7.22;5.28;;;;;;;10.98;76.76;99114.34;5030089;28;20044;-65
2021/05/03 02:20:14;;;;;;;7.50;5.40;;;;;;;11.05;76.54;99126.50;5029995;28;20123;-65
2021/05/03 02:22:40;;;;;;;9.15;5.68;;;;;;;10.88;77.46;99112.88;5029272;28;20040;-66
2021/05/03 02:25:06;;;;;;;7.45;5.57;;;;;;;10.94;77.70;99098.56;5044144;28;20118;-65
2021/05/03 02:27:32;;;;;;;7.80;5.15;;;;;;;10.93;77.10;99100.34;5029532;28;20540;-65
2021/05/03 02:29:57;;;;;;;7.47;5.32;;;;;;;10.93;77.06;99091.53;5044716;28;20127;-66
2021/05/03 02:32:23;;;;;;;7.28;5.47;;;;;;;10.96;77.42;99088.78;5029390;28;20052;-69
2021/05/03 02:34:49;;;;;;;8.48;5.43;;;;;;;10.94;77.68;99072.91;5044845;28;20128;-64
2021/05/03 02:37:15;;;;;;;10.88;6.05;;;;;;;10.93;77.20;99059.69;5046484;28;20132;-67
2021/05/03 02:39:42;;;;;;;8.70;5.45;;;;;;;10.90;77.82;99094.25;5045915;28;20504;-67
2021/05/03 02:42:10;;;;;;;8.02;6.13;;;;;;;10.92;76.96;99060.63;5044984;28;20920;-65
2021/05/03 02:44:39;;;;;;;8.82;5.85;;;;;;;11.05;77.79;99062.81;5045909;28;20508;-67
2021/05/03 02:47:09;;;;;;;8.40;5.80;;;;;;;11.06;77.22;99035.38;5047187;28;20157;-66
2021/05/03 02:49:36;;;;;;;7.15;6.18;;;;;;;10.93;78.18;99044.66;5027508;28;20131;-69
2021/05/03 02:52:03;;;;;;;9.82;6.55;;;;;;;10.92;78.37;99037.59;5045058;28;20047;-65
2021/05/03 02:54:29;;;;;;;6.68;5.88;;;;;;;10.98;78.04;99033.88;5045031;28;20132;-66
2021/05/03 02:56:55;;;;;;;7.82;6.30;;;;;;;10.93;77.81;99027.88;5045696;28;20131;-65
2021/05/03 02:59:21;;;;;;;7.82;6.00;;;;;;;11.05;77.73;99024.81;5043805;28;20048;-66
2021/05/03 03:01:47;;;;;;;8.18;6.00;;;;;;;11.04;77.42;99028.38;5046657;28;20049;-65
2021/05/03 03:04:13;;;;;;;7.32;6.10;;;;;;;11.07;77.42;99037.09;5045255;28;20045;-65
2021/05/03 03:06:39;;;;;;;7.50;6.40;;;;;;;10.99;77.89;99023.22;5043965;28;20579;-69
2021/05/03 03:09:05;;;;;;;9.65;6.47;;;;;;;10.92;77.92;99003.13;5045093;28;20040;-66
2021/05/03 03:11:32;;;;;;;7.95;6.95;;;;;;;11.04;78.31;99001.84;5046224;28;20059;-65
2021/05/03 03:14:00;;;;;;;7.00;6.30;;;;;;;11.13;77.22;98991.81;5044305;28;20560;-65
2021/05/03 03:16:26;;;;;;;13.20;6.50;;;;;;;11.14;77.64;98995.28;5044263;28;20102;-67
2021/05/03 03:18:56;;;;;;;7.10;6.35;;;;;;;10.91;77.62;98964.25;5046266;28;20052;-66
2021/05/03 03:21:22;;;;;;;8.52;6.43;;;;;;;11.16;77.08;98980.22;5044820;28;20037;-65
2021/05/03 03:23:48;;;;;;;7.82;6.57;;;;;;;11.14;78.30;98980.25;5023587;28;20048;-66
2021/05/03 03:26:14;;;;;;;8.00;6.55;;;;;;;11.19;77.42;98974.81;5044850;28;20827;-67
2021/05/03 03:28:40;;;;;;;11.57;6.72;;;;;;;11.15;77.77;98974.03;5045124;28;20048;-66
2021/05/03 03:31:06;;;;;;;8.00;6.97;;;;;;;11.21;77.73;98967.63;5043755;28;20129;-66
2021/05/03 03:33:31;;;;;;;8.10;6.63;;;;;;;11.22;77.72;98956.09;5025975;28;20037;-64
2021/05/03 03:35:58;;;;;;;8.73;6.97;;;;;;;11.25;77.70;98958.66;5044617;28;20045;-65
2021/05/03 03:38:24;;;;;;;9.45;6.88;;;;;;;11.15;77.77;98946.66;5028209;28;20044;-66
2021/05/03 03:40:50;;;;;;;8.07;6.85;;;;;;;11.19;77.30;98933.19;5043894;28;20048;-70
2021/05/03 03:43:15;;;;;;;9.32;7.10;;;;;;;11.28;77.75;98945.28;5044744;28;20394;-66
2021/05/03 03:45:41;;;;;;;8.52;6.85;;;;;;;11.32;77.91;98934.47;5044262;28;20041;-65
2021/05/03 03:48:09;;;;;;;9.55;8.38;;;;;;;11.27;77.88;98931.13;5044294;28;20492;-65
2021/05/03 03:50:35;;;;;;;11.95;7.47;;;;;;;11.13;77.55;98916.63;5041389;28;20053;-66
2021/05/03 03:53:01;;;;;;;11.30;7.57;;;;;;;11.32;77.10;98938.94;5046092;28;20037;-64
2021/05/03 03:55:27;;;;;;;10.27;8.05;;;;;;;11.07;77.88;98917.72;5045947;28;20049;-65
2021/05/03 03:57:54;;;;;;;10.40;7.70;;;;;;;11.34;77.83;98916.72;5044289;28;20083;-69
2021/05/03 04:00:21;;;;;;;9.05;7.55;;;;;;;11.40;77.68;98915.63;5025122;28;20056;-67
2021/05/03 04:02:48;;;;;;;9.63;7.32;;;;;;;11.31;78.22;98898.25;5044710;28;20083;-66
2021/05/03 04:10:25;;;;;;;9.88;8.10;;;;;;;11.17;78.53;98895.25;5044061;28;20370;-66
2021/05/03 04:13:12;;;;;;;10.95;7.95;;;;;;;11.33;78.11;98898.19;5044812;28;20449;-66
2021/05/03 04:21:16;;;;;;;15.90;8.93;;;;;;;11.32;78.35;98875.25;5044500;28;20068;-65
2021/05/03 04:23:52;;;;;;;11.02;8.02;;;;;;;11.33;77.87;98853.97;5042170;28;20076;-64
2021/05/03 04:26:21;;;;;;;12.02;9.23;;;;;;;11.29;78.91;98860.31;5023599;28;20049;-65
2021/05/03 04:28:48;;;;;;;12.00;8.93;;;;;;;11.37;78.56;98863.53;5040885;28;20049;-66
2021/05/03 04:31:15;;;;;;;12.50;10.00;;;;;;;11.27;79.28;98856.00;5022361;28;20077;-66
2021/05/03 04:33:43;;;;;;;13.48;10.23;;;;;;;11.14;79.34;98844.06;5040652;28;20037;-66
2021/05/03 04:36:09;;;;;;;10.80;9.40;;;;;;;11.28;78.83;98845.28;5035120;28;20067;-67
2021/05/03 04:38:35;;;;;;;10.68;9.50;;;;;;;11.13;79.79;98848.53;5044945;28;20060;-69
2021/05/03 04:41:02;;;;;;;12.63;9.43;;;;;;;11.20;79.77;98833.25;5046577;28;20087;-66
2021/05/03 04:43:28;;;;;;;12.55;9.27;;;;;;;10.94;80.99;98830.66;5047354;28;20531;-67
2021/05/03 04:45:54;;;;;;;11.73;9.18;;;;;;;10.79;80.22;98804.69;5045980;28;20146;-66
2021/05/03 04:48:19;;;;;;;12.10;9.55;;;;;;;11.05;81.15;98826.72;5027862;28;20064;-66
2021/05/03 04:50:45;;;;;;;13.57;9.27;;;;;;;10.98;81.20;98814.59;5030105;28;20143;-67
2021/05/03 04:53:11;;;;;;;11.45;8.90;;;;;;;11.18;79.88;98811.19;5030158;28;20041;-66
2021/05/03 04:55:37;;;;;;;11.80;8.70;;;;;;;11.36;79.26;98805.22;5046078;28;20596;-67
2021/05/03 04:58:03;;;;;;;12.23;8.88;;;;;;;11.00;80.34;98770.31;5044259;28;20037;-67
2021/05/03 05:00:29;;;;;;;14.90;9.70;;;;;;;11.34;80.13;98789.34;5046216;28;20056;-65
2021/05/03 05:02:55;;;;;;;9.88;8.65;;;;;;;11.20;80.33;98796.09;5046537;28;20137;-65
2021/05/03 05:05:21;;;;;;;11.45;8.57;;;;;;;11.26;79.96;98767.53;5044517;28;20048;-70
2021/05/03 05:07:47;;;;;;;9.57;8.05;;;;;;;11.43;80.19;98778.34;5029121;28;20107;-64
2021/05/03 05:10:14;;;;;;;9.50;8.48;;;;;;;11.03;80.35;98756.94;5048041;28;20063;-67
2021/05/03 05:12:40;;;;;;;10.18;9.00;;;;;;;11.24;80.59;98742.00;5030909;28;20041;-66
2021/05/03 05:15:07;;;;;;;11.07;8.25;;;;;;;11.41;79.96;98756.34;5044248;28;20059;-66
2021/05/03 05:17:36;;;;;;;9.48;7.90;;;;;;;11.40;80.18;98753.72;5047353;28;20060;-66
2021/05/03 05:20:03;;;;;;;9.32;8.23;;;;;;;11.44;79.87;98747.38;5030977;28;20052;-67
2021/05/03 05:22:30;;;;;;;11.80;8.15;;;;;;;11.42;80.08;98743.91;5046541;28;20451;-66
2021/05/03 05:24:56;;;;;;;8.63;7.72;;;;;;;11.57;79.64;98730.03;5030779;28;20045;-67
2021/05/03 05:27:22;;;;;;;9.57;8.27;;;;;;;11.48;79.44;98730.41;5049202;28;20075;-66
2021/05/03 05:29:48;;;;;;;12.55;8.50;;;;;;;11.47;79.95;98723.38;5030070;28;20040;-67
2021/05/03 05:32:14;;;;;;;9.43;8.25;;;;;;;11.54;80.09;98740.75;5028411;28;20041;-67
2021/05/03 05:34:39;;;;;;;12.48;9.07;;;;;;;11.46;80.55;98735.78;5046838;28;20148;-66
2021/05/03 05:37:05;;;;;;;11.77;9.13;;;;;;;11.60;80.87;98732.56;5013665;28;20455;-67
2021/05/03 05:39:31;;;;;;;13.85;10.07;;;;;;;11.35;81.25;98734.47;5047531;28;20083;-69
2021/05/03 05:41:57;;;;;;;12.93;9.43;;;;;;;11.64;81.33;98720.94;5029234;28;20053;-66
2021/05/03 05:44:23;;;;;;;12.10;10.77;;;;;;;11.49;84.02;98724.16;5029904;28;20095;-66
2021/05/03 05:46:49;;;;;;;12.40;9.90;;;;;;;11.33;82.71;98713.31;5048119;28;20049;-65
2021/05/03 05:49:15;;;;;;;11.73;10.05;;;;;;;11.35;82.92;98697.34;5043959;28;20091;-66
2021/05/03 05:51:41;;;;;;;12.05;10.77;;;;;;;11.48;82.86;98695.91;5046683;28;20471;-66
2021/05/03 05:54:08;;;;;;;12.02;10.55;;;;;;;11.41;82.09;98702.38;5029690;28;20045;-65
2021/05/03 05:56:34;;;;;;;11.93;10.48;;;;;;;11.55;82.69;98689.41;5046692;28;20045;-65
2021/05/03 05:59:00;;;;;;;13.07;11.07;;;;;;;11.52;82.63;98693.03;5044394;28;20488;-66
2021/05/03 06:01:27;;;;;;;14.52;10.77;;;;;;;11.45;82.37;98688.94;5029431;28;20045;-67
2021/05/03 06:03:54;;;;;;;12.30;10.88;;;;;;;11.64;82.31;98689.94;5046914;28;20048;-66
2021/05/03 06:06:20;;;;;;;12.73;11.32;;;;;;;11.45;83.92;98688.06;5028148;28;20114;-67
2021/05/03 06:08:46;;;;;;;15.57;13.23;;;;;;;11.46;84.48;98673.84;5046838;28;20114;-67
2021/05/03 06:11:13;;;;;;;11.70;10.18;;;;;;;11.37;83.97;98687.50;5046695;28;20041;-66
2021/05/03 06:13:40;;;;;;;15.13;13.50;;;;;;;11.54;84.66;98677.06;5045636;28;20048;-65
2021/05/03 06:16:06;;;;;;;14.23;11.57;;;;;;;11.50;85.13;98675.44;5045520;28;20044;-66
2021/05/03 06:18:32;;;;;;;14.27;11.75;;;;;;;11.49;84.27;98671.06;5029611;28;20045;-68
2021/05/03 06:20:58;;;;;;;16.95;12.10;;;;;;;11.67;83.83;98660.59;5046140;28;20056;-67
2021/05/03 06:23:24;;;;;;;13.18;11.70;;;;;;;11.70;83.23;98648.97;5045003;28;20769;-67
2021/05/03 06:25:50;;;;;;;12.73;11.15;;;;;;;11.91;83.04;98643.59;5046099;28;20114;-66
2021/05/03 06:28:16;;;;;;;14.13;11.55;;;;;;;11.91;83.08;98646.25;5046300;28;20041;-68
2021/05/03 06:30:42;;;;;;;15.90;11.05;;;;;;;11.93;83.52;98643.53;5044582;28;20053;-65
2021/05/03 06:33:08;;;;;;;13.20;11.63;;;;;;;11.87;83.64;98643.81;5044253;28;20041;-65
2021/05/03 06:35:34;;;;;;;12.75;10.77;;;;;;;11.89;82.95;98636.63;5047382;28;20044;-66
2021/05/03 06:38:09;;;;;;;14.05;11.95;;;;;;;11.85;83.06;98627.06;5030437;28;20068;-66
2021/05/03 06:40:35;;;;;;;15.90;12.45;;;;;;;11.92;83.28;98621.44;5043784;28;20085;-66
2021/05/03 06:43:01;;;;;;;13.38;11.98;;;;;;;11.88;82.60;98618.97;5045950;28;20040;-66
2021/05/03 06:45:30;;;;;;;14.38;12.07;;;;;;;11.91;82.83;98626.81;5027827;28;20049;-66
2021/05/03 06:47:56;;;;;;;13.48;11.80;;;;;;;12.11;82.47;98617.03;5044981;28;20056;-66
2021/05/03 06:50:22;;;;;;;13.90;11.70;;;;;;;12.21;82.32;98630.78;5028410;28;20098;-63
2021/05/03 06:52:48;;;;;;;14.30;12.73;;;;;;;12.15;82.77;98600.03;5028639;28;20097;-66
2021/05/03 06:55:15;;;;;;;16.55;13.35;;;;;;;11.97;84.24;98614.13;5012677;28;20214;-66
2021/05/03 06:57:43;;;;;;;18.52;14.68;;;;;;;11.90;85.69;98615.31;5010917;28;20475;-66
2021/05/03 07:00:11;;;;;;;23.55;15.98;;;;;;;11.71;86.02;98614.38;5043788;28;20124;-68
2021/05/03 07:02:39;;;;;;;20.77;17.63;;;;;;;11.88;87.16;98609.22;5046450;28;20053;-66
2021/05/03 07:05:06;;;;;;;33.47;19.95;;;;;;;11.81;87.43;98606.88;5045459;28;20182;-69
2021/05/03 07:07:33;;;;;;;30.75;22.75;;;;;;;11.94;88.00;98608.94;5012450;28;20041;-65
2021/05/03 07:09:59;;;;;;;31.92;22.17;;;;;;;11.79;88.41;98601.66;5024391;28;20056;-67
2021/05/03 07:12:26;;;;;;;31.65;22.27;;;;;;;11.78;88.30;98591.97;5026879;28;20397;-67
2021/05/03 07:14:52;;;;;;;30.50;22.98;;;;;;;11.99;88.39;98600.78;5040423;28;20596;-66
2021/05/03 07:17:21;;;;;;;30.30;23.20;;;;;;;12.00;87.41;98590.09;5025004;28;20056;-66
2021/05/03 07:19:47;;;;;;;29.33;21.20;;;;;;;12.24;87.23;98589.00;5026966;28;20056;-66
2021/05/03 07:22:13;;;;;;;24.90;18.92;;;;;;;12.43;86.67;98584.53;5043772;28;20048;-69
2021/05/03 07:24:41;;;;;;;21.50;16.92;;;;;;;12.31;86.25;98581.59;5044986;28;20036;-65
2021/05/03 07:27:10;;;;;;;21.25;16.02;;;;;;;12.54;85.54;98570.78;5045499;28;20053;-66
2021/05/03 07:29:36;;;;;;;24.92;18.10;;;;;;;12.72;85.88;98568.09;5045133;28;20074;-68
2021/05/03 07:32:03;;;;;;;20.85;14.57;;;;;;;12.81;84.35;98548.16;5044175;28;20045;-66
2021/05/03 07:34:28;;;;;;;18.02;15.10;;;;;;;13.00;84.12;98560.56;5028027;28;20071;-65
2021/05/03 07:36:54;;;;;;;21.60;14.23;;;;;;;13.39;83.02;98563.91;5028147;28;20075;-67
2021/05/03 07:39:20;;;;;;;20.38;14.63;;;;;;;13.80;82.34;98559.09;5044411;28;20047;-65
2021/05/03 07:41:46;;;;;;;17.35;12.48;;;;;;;14.17;79.73;98552.69;5027925;28;20791;-66
2021/05/03 07:44:12;;;;;;;15.98;11.88;;;;;;;14.26;79.48;98541.56;5043954;28;20134;-66
2021/05/03 07:46:38;;;;;;;16.05;12.35;;;;;;;14.38;79.46;98540.88;5011004;28;20061;-65
2021/05/03 07:49:06;;;;;;;13.45;11.05;;;;;;;14.14;79.37;98521.72;5043929;28;20377;-65
2021/05/03 07:51:32;;;;;;;15.32;10.85;;;;;;;14.49;79.35;98530.50;5044420;28;20044;-65
2021/05/03 07:54:01;;;;;;;15.73;11.20;;;;;;;15.28;76.64;98530.38;5045863;28;20120;-66
2021/05/03 07:56:30;;;;;;;11.68;9.60;;;;;;;15.44;75.15;98509.84;5071704;22;20053;-64
2021/05/03 07:59:05;;;;;;;11.13;9.07;;;;;;;16.14;74.16;98526.00;5023938;28;20485;-67
2021/05/03 08:01:31;;;;;;;15.13;10.18;;;;;;;15.79;74.52;98517.44;5032019;22;20069;-66
2021/05/03 08:03:57;;;;;;;11.93;9.00;;;;;;;15.69;74.63;98526.13;5004838;28;20057;-67
2021/05/03 08:06:31;;;;;;;11.45;9.70;;;;;;;15.33;76.01;98521.13;5030941;22;20053;-64
2021/05/03 08:09:00;;;;;;;12.35;10.07;;;;;;;15.10;77.05;98502.91;5025957;28;20056;-64
2021/05/03 08:11:28;;;;;;;11.50;10.05;;;;;;;15.09;77.36;98505.69;5022720;28;20041;-65
2021/05/03 08:13:54;;;;;;;18.38;10.20;;;;;;;14.91;77.41;98470.22;5025136;28;20071;-66
2021/05/03 08:16:22;;;;;;;13.27;10.90;;;;;;;14.94;77.90;98474.53;5025277;28;20496;-66
2021/05/03 08:18:48;;;;;;;16.70;11.10;;;;;;;15.05;77.94;98485.44;5007249;28;20045;-67
2021/05/03 08:21:14;;;;;;;15.98;11.10;;;;;;;14.94;77.78;98490.53;5023096;28;20611;-65
2021/05/03 08:23:40;;;;;;;13.52;11.35;;;;;;;15.12;77.55;98485.03;4991393;28;20488;-67
2021/05/03 08:26:08;;;;;;;15.65;11.00;;;;;;;15.02;77.73;98475.81;5007307;28;20041;-67
2021/05/03 08:28:34;;;;;;;15.60;11.43;;;;;;;15.21;77.81;98479.13;5002083;28;20061;-67
2021/05/03 08:31:00;;;;;;;18.73;12.27;;;;;;;15.38;77.18;98465.66;5020652;28;20045;-66
2021/05/03 08:33:27;;;;;;;16.10;11.10;;;;;;;15.59;77.28;98461.69;5004287;28;20053;-64
2021/05/03 08:35:56;;;;;;;15.23;11.43;;;;;;;15.83;76.38;98459.34;5006059;28;20136;-68
2021/05/03 08:38:22;;;;;;;16.23;11.45;;;;;;;15.90;76.04;98463.34;5023009;28;20088;-64
2021/05/03 08:40:48;;;;;;;13.90;11.93;;;;;;;15.83;76.62;98460.19;5007434;28;20103;-64
2021/05/03 08:43:17;;;;;;;17.02;11.30;;;;;;;15.59;76.87;98437.63;5007509;28;20046;-66
2021/05/03 08:45:43;;;;;;;13.63;11.27;;;;;;;15.95;76.53;98448.72;5023974;28;20041;-66
2021/05/03 08:55:58;;;;;;;14.40;11.30;;;;;;;16.50;74.65;98448.81;5025361;28;20143;-66
2021/05/03 08:58:45;;;;;;;13.52;11.30;;;;;;;16.21;75.83;98431.03;5025004;28;20186;-69
2021/05/03 09:01:10;;;;;;;19.60;11.70;;;;;;;16.40;75.77;98450.31;5024983;28;20053;-63
2021/05/03 09:03:40;;;;;;;19.90;12.23;;;;;;;16.48;75.34;98446.22;5006449;28;20200;-65
2021/05/03 09:06:10;;;;;;;15.25;11.75;;;;;;;15.98;76.87;98435.16;5021710;28;20056;-68
2021/05/03 09:08:37;;;;;;;18.55;12.60;;;;;;;16.27;75.74;98442.22;5024894;28;20188;-65
2021/05/03 09:11:02;;;;;;;23.08;14.77;;;;;;;16.02;75.79;98419.81;5023623;28;20089;-69
2021/05/03 09:13:35;;;;;;;16.92;13.00;;;;;;;16.20;76.85;98421.31;5021862;28;20045;-68
2021/05/03 09:16:23;;;;;;;18.00;11.73;;;;;;;16.42;75.29;98429.72;5024009;28;20045;-67
2021/05/03 09:18:52;;;;;;;15.55;12.35;;;;;;;16.28;75.88;98422.53;5005211;28;20106;-68
2021/05/03 09:21:18;;;;;;;18.77;12.57;;;;;;;16.42;75.78;98424.38;5023635;28;20053;-69
2021/05/03 09:24:07;;;;;;;15.38;11.38;;;;;;;16.35;75.92;98428.34;5025305;28;20079;-67
2021/05/03 09:26:39;;;;;;;17.10;11.60;;;;;;;16.51;75.12;98424.63;5025617;28;20129;-67
2021/05/03 09:29:29;;;;;;;19.95;12.20;;;;;;;16.53;75.28;98425.38;5026636;28;20044;-69
2021/05/03 09:32:00;;;;;;;18.75;11.93;;;;;;;16.12;76.52;98412.91;5027749;28;20898;-67
2021/05/03 09:34:34;;;;;;;16.85;12.38;;;;;;;16.17;76.30;98398.28;5018998;28;20046;-71
2021/05/03 09:37:21;;;;;;;18.27;11.52;;;;;;;16.26;76.83;98421.75;5007323;28;20049;-77
2021/05/03 09:40:29;;;;;;;19.25;12.30;;;;;;;16.55;75.83;98414.56;5011727;28;20060;-73
2021/05/03 09:43:28;;;;;;;19.08;12.40;;;;;;;16.64;75.39;98389.88;5005899;28;20092;-77
2021/05/03 09:45:58;;;;;;;17.27;11.98;;;;;;;17.11;74.02;98407.16;5009072;28;20097;-76
2021/05/03 09:48:27;;;;;;;17.15;11.70;;;;;;;17.10;74.30;98404.59;4990143;28;20037;-75
2021/05/03 09:51:05;;;;;;;17.23;12.00;;;;;;;16.63;75.31;98396.19;4989631;28;20053;-76
2021/05/03 09:53:31;;;;;;;20.27;13.38;;;;;;;16.78;75.49;98398.69;4988337;28;20076;-71
2021/05/03 09:56:00;;;;;;;20.33;13.68;;;;;;;17.07;74.29;98407.47;4989177;28;20042;-73
2021/05/03 09:58:26;;;;;;;20.20;13.35;;;;;;;17.04;74.56;98391.59;5004897;28;20077;-74
2021/05/03 10:00:54;;;;;;;18.27;11.90;;;;;;;16.94;74.49;98393.19;4989332;28;20614;-72
2021/05/03 10:03:47;;;;;;;22.27;13.07;;;;;;;16.99;74.31;98391.06;5005513;28;20053;-72
2021/05/03 10:06:17;;;;;;;;;;;;;;;16.86;75.37;98399.03;5002769;28;20069;-73
2021/05/03 10:08:47;;;;;;;18.70;12.85;;;;;;;16.57;76.04;98375.16;4986184;28;20020;-75
2021/05/03 10:11:15;;;;;;;21.42;13.27;;;;;;;16.68;75.71;98370.84;4985991;28;20045;-72
2021/05/03 10:13:47;;;;;;;21.73;14.07;;;;;;;16.85;75.40;98407.22;4988171;28;20521;-71
2021/05/03 10:16:13;;;;;;;12.93;10.07;;;;;;;16.40;77.05;98423.56;5005357;28;20161;-71
2021/05/03 10:18:41;;;;;;;22.63;14.20;;;;;;;16.56;76.72;98410.94;5009112;28;20509;-72
2021/05/03 10:21:12;;;;;;;15.27;12.73;;;;;;;16.43;77.52;98394.84;5026288;28;20072;-72
2021/05/03 10:23:40;;;;;;;19.98;11.65;;;;;;;16.38;77.42;98402.25;5026891;28;20049;-67
2021/05/03 10:26:08;;;;;;;20.63;14.27;;;;;;;16.57;77.32;98393.91;4987466;28;20045;-69
2021/05/03 10:28:50;;;;;;;23.05;14.63;;;;;;;16.46;77.26;98408.00;5025855;28;20824;-64
2021/05/03 10:31:17;;;;;;;20.67;14.63;;;;;;;16.47;77.54;98384.78;5022033;28;20611;-66
2021/05/03 10:33:42;;;;;;;20.63;14.07;;;;;;;16.31;77.27;98379.56;5023729;28;20497;-65
2021/05/03 10:36:08;;;;;;;21.90;14.10;;;;;;;16.49;76.97;98407.81;5024738;28;20046;-68
2021/05/03 10:38:39;;;;;;;21.63;13.45;;;;;;;16.40;77.86;98392.31;5025165;28;20467;-70
2021/05/03 10:41:20;;;;;;;18.85;14.27;;;;;;;16.42;77.28;98386.91;4986857;28;20050;-69
2021/05/03 10:43:47;;;;;;;24.65;15.43;;;;;;;16.53;77.48;98403.97;5025036;28;20152;-71
2021/05/03 10:49:09;;;;;;;18.10;11.55;;;;;;;16.31;78.06;98392.06;5024529;28;20053;-68
2021/05/03 10:51:45;;;;;;;15.57;11.65;;;;;;;16.46;77.67;98405.31;5024720;28;20109;-70
2021/05/03 10:54:25;;;;;;;22.20;15.82;;;;;;;16.53;77.66;98397.75;5023771;28;20574;-71
2021/05/03 10:56:53;;;;;;;17.95;13.77;;;;;;;16.51;77.30;98392.53;5008538;28;20144;-70
2021/05/03 10:59:19;;;;;;;21.42;15.10;;;;;;;16.54;76.99;98392.28;5022455;28;20136;-70
2021/05/03 11:01:51;;;;;;;19.67;14.32;;;;;;;16.46;77.53;98367.84;5023932;28;20608;-70
2021/05/03 11:04:18;;;;;;;22.58;14.43;;;;;;;16.53;77.39;98387.91;5024651;28;20140;-71
2021/05/03 11:06:44;;;;;;;19.50;13.65;;;;;;;16.56;77.04;98371.66;5024657;28;20053;-69
2021/05/03 11:09:25;;;;;;;18.67;14.38;;;;;;;17.11;75.55;98367.00;5008521;28;20037;-69
2021/05/03 11:11:52;;;;;;;24.50;15.68;;;;;;;17.49;74.21;98367.06;5006737;28;20140;-67
2021/05/03 11:14:20;;;;;;;20.35;14.25;;;;;;;19.36;68.49;98370.06;5005677;28;20401;-71
2021/05/03 11:17:08;;;;;;;25.90;14.18;;;;;;;19.50;66.88;98321.47;5024764;28;20049;-71
2021/05/03 11:22:27;;;;;;;20.52;13.25;;;;;;;19.07;68.84;98358.81;5007326;28;20049;-70
2021/05/03 11:25:03;;;;;;;21.42;12.77;;;;;;;18.66;70.07;98350.38;5006522;28;20041;-73
2021/05/03 11:30:29;;;;;;;17.98;12.02;;;;;;;20.74;63.71;98358.75;5005990;28;20041;-73
2021/05/03 11:33:06;;;;;;;16.85;11.70;;;;;;;20.54;63.50;98301.19;5008675;28;20037;-68
2021/05/03 11:40:45;;;;;;;17.38;11.48;;;;;;;18.27;70.63;98347.06;5023314;28;20114;-72
2021/05/03 11:46:32;;;;;;;17.50;12.30;;;;;;;18.31;70.94;98321.72;5021197;28;20045;-76
2021/05/03 11:49:01;;;;;;;19.08;10.63;;;;;;;17.94;71.10;98327.09;5019989;28;20128;-68
2021/05/03 11:51:28;;;;;;;24.23;12.93;;;;;;;18.41;70.44;98312.03;5024568;28;20096;-72
2021/05/03 11:53:54;;;;;;;15.98;12.05;;;;;;;18.66;69.57;98295.81;5020502;28;20137;-70
2021/05/03 11:56:28;;;;;;;16.23;11.70;;;;;;;18.72;69.26;98319.50;5005440;28;20064;-68
2021/05/03 11:59:00;;;;;;;16.13;10.48;;;;;;;18.70;69.47;98305.38;5036559;28;20033;-68
2021/05/03 12:01:28;;;;;;;16.48;9.82;;;;;;;18.68;69.04;98293.88;4984477;28;20057;-71
2021/05/03 12:03:59;;;;;;;15.73;9.75;;;;;;;18.83;68.60;98298.06;5021473;28;20045;-69